sensor_id;sensor_type;location;lat;lon;timestamp;pressure;altitude;pressure_sealevel;temperature;humidity
46045;BME280;31781;54.094;13.428;2023-04-30T00:00:29;102068.38;;;8.31;51.86
46045;BME280;31781;54.094;13.428;2023-04-30T00:02:31;102071.38;;;8.28;52.06
46045;BME280;31781;54.094;13.428;2023-04-30T00:04:33;102066.28;;;8.25;52.47
46045;BME280;31781;54.094;13.428;2023-04-30T00:06:35;102078.28;;;8.22;52.46
46045;BME280;31781;54.094;13.428;2023-04-30T00:08:36;102076.78;;;8.20;52.69
46045;BME280;31781;54.094;13.428;2023-04-30T00:10:38;102078.78;;;8.18;52.80
46045;BME280;31781;54.094;13.428;2023-04-30T00:12:40;102078.25;;;8.14;52.49
46045;BME280;31781;54.094;13.428;2023-04-30T00:14:42;102083.00;;;8.12;52.87
46045;BME280;31781;54.094;13.428;2023-04-30T00:16:45;102084.13;;;8.10;52.97
46045;BME280;31781;54.094;13.428;2023-04-30T00:18:47;102087.19;;;8.07;52.88
46045;BME280;31781;54.094;13.428;2023-04-30T00:20:49;102083.78;;;8.05;52.59
46045;BME280;31781;54.094;13.428;2023-04-30T00:22:50;102082.22;;;8.02;52.52
46045;BME280;31781;54.094;13.428;2023-04-30T00:24:52;102086.97;;;8.00;53.37
46045;BME280;31781;54.094;13.428;2023-04-30T00:26:54;102087.31;;;7.97;52.80
46045;BME280;31781;54.094;13.428;2023-04-30T00:28:56;102084.06;;;7.94;53.24
46045;BME280;31781;54.094;13.428;2023-04-30T00:30:58;102085.06;;;7.93;52.82
46045;BME280;31781;54.094;13.428;2023-04-30T00:33:01;102080.81;;;7.90;53.27
46045;BME280;31781;54.094;13.428;2023-04-30T00:35:03;102080.28;;;7.87;53.42
46045;BME280;31781;54.094;13.428;2023-04-30T00:37:05;102092.13;;;7.86;53.63
46045;BME280;31781;54.094;13.428;2023-04-30T00:39:07;102095.16;;;7.82;53.69
46045;BME280;31781;54.094;13.428;2023-04-30T00:41:08;102094.44;;;7.80;53.16
46045;BME280;31781;54.094;13.428;2023-04-30T00:43:10;102093.91;;;7.77;53.22
46045;BME280;31781;54.094;13.428;2023-04-30T00:45:12;102094.25;;;7.74;53.46
46045;BME280;31781;54.094;13.428;2023-04-30T00:47:13;102097.28;;;7.71;53.89
46045;BME280;31781;54.094;13.428;2023-04-30T00:49:17;102102.84;;;7.69;53.72
46045;BME280;31781;54.094;13.428;2023-04-30T00:51:19;102100.63;;;7.65;53.54
46045;BME280;31781;54.094;13.428;2023-04-30T00:53:23;102101.63;;;7.64;53.52
46045;BME280;31781;54.094;13.428;2023-04-30T00:55:25;102107.34;;;7.61;53.70
46045;BME280;31781;54.094;13.428;2023-04-30T00:57:27;102105.78;;;7.58;54.09
46045;BME280;31781;54.094;13.428;2023-04-30T00:59:30;102109.66;;;7.56;54.43
46045;BME280;31781;54.094;13.428;2023-04-30T01:01:32;102114.53;;;7.52;54.02
46045;BME280;31781;54.094;13.428;2023-04-30T01:03:34;102110.31;;;7.50;53.87
46045;BME280;31781;54.094;13.428;2023-04-30T01:05:38;102109.75;;;7.46;53.77
46045;BME280;31781;54.094;13.428;2023-04-30T01:07:40;102111.75;;;7.44;53.88
46045;BME280;31781;54.094;13.428;2023-04-30T01:09:42;102117.50;;;7.41;54.55
46045;BME280;31781;54.094;13.428;2023-04-30T01:11:51;102119.50;;;7.39;53.43
46045;BME280;31781;54.094;13.428;2023-04-30T01:14:03;102128.63;;;7.38;53.24
46045;BME280;31781;54.094;13.428;2023-04-30T01:16:12;102124.53;;;7.34;53.78
46045;BME280;31781;54.094;13.428;2023-04-30T01:18:24;102121.13;;;7.32;53.66
46045;BME280;31781;54.094;13.428;2023-04-30T01:20:28;102126.00;;;7.28;54.91
46045;BME280;31781;54.094;13.428;2023-04-30T01:22:45;102127.00;;;7.27;52.89
46045;BME280;31781;54.094;13.428;2023-04-30T01:24:58;102125.44;;;7.25;53.97
46045;BME280;31781;54.094;13.428;2023-04-30T01:27:10;102133.03;;;7.21;54.35
46045;BME280;31781;54.094;13.428;2023-04-30T01:29:18;102130.63;;;7.18;54.72
46045;BME280;31781;54.094;13.428;2023-04-30T01:31:22;102128.25;;;7.15;54.62
46045;BME280;31781;54.094;13.428;2023-04-30T01:33:24;102130.41;;;7.12;55.48
46045;BME280;31781;54.094;13.428;2023-04-30T01:35:38;102126.97;;;7.10;54.07
46045;BME280;31781;54.094;13.428;2023-04-30T01:37:52;102131.84;;;7.06;54.71
46045;BME280;31781;54.094;13.428;2023-04-30T01:40:07;102140.13;;;7.05;54.57
46045;BME280;31781;54.094;13.428;2023-04-30T01:42:19;102135.03;;;7.02;55.18
46045;BME280;31781;54.094;13.428;2023-04-30T01:44:41;102138.72;;;7.01;53.85
46045;BME280;31781;54.094;13.428;2023-04-30T01:46:50;102150.00;;;6.96;56.14
46045;BME280;31781;54.094;13.428;2023-04-30T01:49:02;102137.63;;;6.94;55.18
46045;BME280;31781;54.094;13.428;2023-04-30T01:51:15;102147.75;;;6.92;56.10
46045;BME280;31781;54.094;13.428;2023-04-30T01:53:20;102154.31;;;6.89;56.27
46045;BME280;31781;54.094;13.428;2023-04-30T01:55:27;102149.22;;;6.86;56.62
46045;BME280;31781;54.094;13.428;2023-04-30T01:57:32;102153.09;;;6.83;56.97
46045;BME280;31781;54.094;13.428;2023-04-30T01:59:38;102155.22;;;6.80;56.68
46045;BME280;31781;54.094;13.428;2023-04-30T02:01:40;102158.94;;;6.79;56.84
46045;BME280;31781;54.094;13.428;2023-04-30T02:03:42;102161.09;;;6.75;57.02
46045;BME280;31781;54.094;13.428;2023-04-30T02:05:43;102162.94;;;6.75;56.93
46045;BME280;31781;54.094;13.428;2023-04-30T02:07:48;102160.69;;;6.70;57.38
46045;BME280;31781;54.094;13.428;2023-04-30T02:09:50;102167.06;;;6.69;57.08
46045;BME280;31781;54.094;13.428;2023-04-30T02:11:52;102170.94;;;6.67;56.98
46045;BME280;31781;54.094;13.428;2023-04-30T02:13:54;102172.09;;;6.64;57.81
46045;BME280;31781;54.094;13.428;2023-04-30T02:15:57;102165.13;;;6.62;57.52
46045;BME280;31781;54.094;13.428;2023-04-30T02:17:59;102173.53;;;6.59;57.67
46045;BME280;31781;54.094;13.428;2023-04-30T02:20:01;102171.25;;;6.54;57.97
46045;BME280;31781;54.094;13.428;2023-04-30T02:22:02;102172.28;;;6.53;57.99
46045;BME280;31781;54.094;13.428;2023-04-30T02:24:05;102176.28;;;6.49;57.86
46045;BME280;31781;54.094;13.428;2023-04-30T02:26:06;102185.38;;;6.48;57.99
46045;BME280;31781;54.094;13.428;2023-04-30T02:28:08;102182.00;;;6.46;57.90
46045;BME280;31781;54.094;13.428;2023-04-30T02:30:10;102180.41;;;6.44;57.17
46045;BME280;31781;54.094;13.428;2023-04-30T02:32:13;102178.00;;;6.41;57.69
46045;BME280;31781;54.094;13.428;2023-04-30T02:34:15;102175.47;;;6.39;58.04
46045;BME280;31781;54.094;13.428;2023-04-30T02:36:19;102181.03;;;6.38;58.11
46045;BME280;31781;54.094;13.428;2023-04-30T02:38:21;102183.84;;;6.36;58.13
46045;BME280;31781;54.094;13.428;2023-04-30T02:40:22;102182.31;;;6.33;57.88
46045;BME280;31781;54.094;13.428;2023-04-30T02:42:24;102181.63;;;6.31;57.73
46045;BME280;31781;54.094;13.428;2023-04-30T02:44:27;102183.59;;;6.29;58.37
46045;BME280;31781;54.094;13.428;2023-04-30T02:46:29;102182.91;;;6.27;57.79
46045;BME280;31781;54.094;13.428;2023-04-30T02:48:32;102193.00;;;6.25;57.57
46045;BME280;31781;54.094;13.428;2023-04-30T02:50:34;102195.84;;;6.24;57.95
46045;BME280;31781;54.094;13.428;2023-04-30T02:52:36;102196.97;;;6.21;57.83
46045;BME280;31781;54.094;13.428;2023-04-30T02:54:38;102192.72;;;6.19;57.89
46045;BME280;31781;54.094;13.428;2023-04-30T02:56:39;102197.44;;;6.17;57.55
46045;BME280;31781;54.094;13.428;2023-04-30T02:58:41;102191.31;;;6.15;58.39
46045;BME280;31781;54.094;13.428;2023-04-30T03:00:43;102185.22;;;6.13;58.34
46045;BME280;31781;54.094;13.428;2023-04-30T03:02:45;102192.59;;;6.11;58.14
46045;BME280;31781;54.094;13.428;2023-04-30T03:04:49;102196.28;;;6.10;57.53
46045;BME280;31781;54.094;13.428;2023-04-30T03:06:51;102197.44;;;6.07;57.73
46045;BME280;31781;54.094;13.428;2023-04-30T03:08:52;102196.59;;;6.07;58.23
46045;BME280;31781;54.094;13.428;2023-04-30T03:10:54;102204.84;;;6.05;58.34
46045;BME280;31781;54.094;13.428;2023-04-30T03:12:56;102212.22;;;6.03;58.30
46045;BME280;31781;54.094;13.428;2023-04-30T03:14:58;102199.75;;;6.02;57.47
46045;BME280;31781;54.094;13.428;2023-04-30T03:16:59;102210.53;;;6.02;58.08
46045;BME280;31781;54.094;13.428;2023-04-30T03:19:01;102210.69;;;6.01;58.25
46045;BME280;31781;54.094;13.428;2023-04-30T03:21:04;102204.72;;;5.97;57.94
46045;BME280;31781;54.094;13.428;2023-04-30T03:23:06;102203.00;;;5.96;58.30
46045;BME280;31781;54.094;13.428;2023-04-30T03:25:08;102209.38;;;5.95;57.92
46045;BME280;31781;54.094;13.428;2023-04-30T03:27:10;102204.28;;;5.92;58.13
46045;BME280;31781;54.094;13.428;2023-04-30T03:29:11;102208.97;;;5.90;58.75
46045;BME280;31781;54.094;13.428;2023-04-30T03:31:14;102205.56;;;5.88;58.08
46045;BME280;31781;54.094;13.428;2023-04-30T03:33:15;102214.69;;;5.87;58.30
46045;BME280;31781;54.094;13.428;2023-04-30T03:35:17;102221.91;;;5.86;58.78
46045;BME280;31781;54.094;13.428;2023-04-30T03:37:20;102226.56;;;5.84;58.41
46045;BME280;31781;54.094;13.428;2023-04-30T03:39:22;102219.59;;;5.82;58.47
46045;BME280;31781;54.094;13.428;2023-04-30T03:41:26;102225.13;;;5.80;59.04
46045;BME280;31781;54.094;13.428;2023-04-30T03:43:27;102232.41;;;5.80;58.36
46045;BME280;31781;54.094;13.428;2023-04-30T03:45:29;102233.53;;;5.77;59.27
46045;BME280;31781;54.094;13.428;2023-04-30T03:47:34;102234.53;;;5.76;59.16
46045;BME280;31781;54.094;13.428;2023-04-30T03:49:36;102229.97;;;5.77;58.78
46045;BME280;31781;54.094;13.428;2023-04-30T03:51:39;102234.53;;;5.76;58.85
46045;BME280;31781;54.094;13.428;2023-04-30T03:53:42;102247.19;;;5.76;59.10
46045;BME280;31781;54.094;13.428;2023-04-30T03:55:44;102237.50;;;5.73;58.92
46045;BME280;31781;54.094;13.428;2023-04-30T03:57:46;102242.91;;;5.73;58.69
46045;BME280;31781;54.094;13.428;2023-04-30T03:59:49;102244.06;;;5.71;59.21
46045;BME280;31781;54.094;13.428;2023-04-30T04:01:51;102244.06;;;5.71;58.60
46045;BME280;31781;54.094;13.428;2023-04-30T04:03:53;102247.59;;;5.71;58.91
46045;BME280;31781;54.094;13.428;2023-04-30T04:05:55;102246.75;;;5.71;58.83
46045;BME280;31781;54.094;13.428;2023-04-30T04:07:57;102248.59;;;5.70;59.33
46045;BME280;31781;54.094;13.428;2023-04-30T04:10:00;102254.16;;;5.69;59.36
46045;BME280;31781;54.094;13.428;2023-04-30T04:12:02;102251.47;;;5.69;58.87
46045;BME280;31781;54.094;13.428;2023-04-30T04:14:04;102247.91;;;5.68;59.35
46045;BME280;31781;54.094;13.428;2023-04-30T04:16:06;102242.50;;;5.68;59.15
46045;BME280;31781;54.094;13.428;2023-04-30T04:18:07;102251.47;;;5.69;59.59
46045;BME280;31781;54.094;13.428;2023-04-30T04:20:11;102257.97;;;5.66;59.77
46045;BME280;31781;54.094;13.428;2023-04-30T04:22:14;102253.13;;;5.70;59.10
46045;BME280;31781;54.094;13.428;2023-04-30T04:24:16;102253.13;;;5.70;59.28
46045;BME280;31781;54.094;13.428;2023-04-30T04:26:19;102255.84;;;5.70;58.97
46045;BME280;31781;54.094;13.428;2023-04-30T04:28:21;102254.00;;;5.70;59.91
46045;BME280;31781;54.094;13.428;2023-04-30T04:30:22;102262.81;;;5.72;59.83
46045;BME280;31781;54.094;13.428;2023-04-30T04:32:24;102261.81;;;5.73;59.45
46045;BME280;31781;54.094;13.428;2023-04-30T04:34:26;102263.41;;;5.76;59.76
46045;BME280;31781;54.094;13.428;2023-04-30T04:36:29;102266.97;;;5.76;59.76
46045;BME280;31781;54.094;13.428;2023-04-30T04:38:31;102263.97;;;5.79;59.67
46045;BME280;31781;54.094;13.428;2023-04-30T04:40:35;102273.63;;;5.82;60.03
46045;BME280;31781;54.094;13.428;2023-04-30T04:42:38;102279.72;;;5.84;60.38
46045;BME280;31781;54.094;13.428;2023-04-30T04:44:39;102275.94;;;5.86;59.58
46045;BME280;31781;54.094;13.428;2023-04-30T04:46:41;102285.59;;;5.89;59.90
46045;BME280;31781;54.094;13.428;2023-04-30T04:48:43;102291.56;;;5.93;59.45
46045;BME280;31781;54.094;13.428;2023-04-30T04:50:45;102292.00;;;5.98;59.43
46045;BME280;31781;54.094;13.428;2023-04-30T04:52:46;102291.84;;;5.99;59.42
46045;BME280;31781;54.094;13.428;2023-04-30T04:54:48;102289.59;;;6.04;59.59
46045;BME280;31781;54.094;13.428;2023-04-30T04:56:50;102286.59;;;6.07;60.05
46045;BME280;31781;54.094;13.428;2023-04-30T04:58:53;102299.69;;;6.12;59.47
46045;BME280;31781;54.094;13.428;2023-04-30T05:00:55;102290.44;;;6.14;59.85
46045;BME280;31781;54.094;13.428;2023-04-30T05:02:57;102292.03;;;6.17;59.88
46045;BME280;31781;54.094;13.428;2023-04-30T05:04:59;102307.09;;;6.19;59.88
46045;BME280;31781;54.094;13.428;2023-04-30T05:07:00;102292.44;;;6.22;59.16
46045;BME280;31781;54.094;13.428;2023-04-30T05:09:03;102305.53;;;6.26;59.92
46045;BME280;31781;54.094;13.428;2023-04-30T05:11:04;102308.09;;;6.28;59.09
46045;BME280;31781;54.094;13.428;2023-04-30T05:13:06;102308.66;;;6.31;59.54
46045;BME280;31781;54.094;13.428;2023-04-30T05:15:10;102298.41;;;6.35;59.83
46045;BME280;31781;54.094;13.428;2023-04-30T05:17:11;102301.50;;;6.40;58.99
46045;BME280;31781;54.094;13.428;2023-04-30T05:19:13;102311.91;;;6.45;59.08
46045;BME280;31781;54.094;13.428;2023-04-30T05:21:15;102303.19;;;6.51;59.46
46045;BME280;31781;54.094;13.428;2023-04-30T05:23:17;102302.78;;;6.55;58.93
46045;BME280;31781;54.094;13.428;2023-04-30T05:25:18;102308.44;;;6.62;59.07
46045;BME280;31781;54.094;13.428;2023-04-30T05:27:20;102315.84;;;6.69;58.38
46045;BME280;31781;54.094;13.428;2023-04-30T05:29:22;102316.13;;;6.76;59.30
46045;BME280;31781;54.094;13.428;2023-04-30T05:31:25;102314.69;;;6.81;59.01
46045;BME280;31781;54.094;13.428;2023-04-30T05:33:27;102323.78;;;6.90;57.96
46045;BME280;31781;54.094;13.428;2023-04-30T05:35:29;102329.44;;;6.97;58.05
46045;BME280;31781;54.094;13.428;2023-04-30T05:37:31;102327.16;;;7.02;58.34
46045;BME280;31781;54.094;13.428;2023-04-30T05:39:32;102325.56;;;7.09;58.24
46045;BME280;31781;54.094;13.428;2023-04-30T05:41:34;102328.53;;;7.15;57.84
46045;BME280;31781;54.094;13.428;2023-04-30T05:43:36;102332.34;;;7.22;58.07
46045;BME280;31781;54.094;13.428;2023-04-30T05:45:37;102330.75;;;7.29;57.49
46045;BME280;31781;54.094;13.428;2023-04-30T05:47:40;102333.72;;;7.36;57.83
46045;BME280;31781;54.094;13.428;2023-04-30T05:49:42;102330.25;;;7.44;57.17
46045;BME280;31781;54.094;13.428;2023-04-30T05:51:44;102333.19;;;7.50;57.02
46045;BME280;31781;54.094;13.428;2023-04-30T05:53:46;102328.06;;;7.57;57.16
46045;BME280;31781;54.094;13.428;2023-04-30T05:55:48;102328.16;;;7.65;56.95
46045;BME280;31781;54.094;13.428;2023-04-30T05:57:50;102329.41;;;7.70;56.75
46045;BME280;31781;54.094;13.428;2023-04-30T05:59:52;102333.06;;;7.79;56.38
46045;BME280;31781;54.094;13.428;2023-04-30T06:01:54;102337.72;;;7.87;56.30
46045;BME280;31781;54.094;13.428;2023-04-30T06:03:58;102333.38;;;7.94;55.95
46045;BME280;31781;54.094;13.428;2023-04-30T06:05:59;102321.78;;;8.01;56.43
46045;BME280;31781;54.094;13.428;2023-04-30T06:08:01;102328.97;;;8.10;55.78
46045;BME280;31781;54.094;13.428;2023-04-30T06:10:04;102331.09;;;8.16;56.32
46045;BME280;31781;54.094;13.428;2023-04-30T06:12:06;102327.59;;;8.24;55.76
46045;BME280;31781;54.094;13.428;2023-04-30T06:14:09;102324.13;;;8.31;55.88
46045;BME280;31781;54.094;13.428;2023-04-30T06:16:11;102321.47;;;8.40;55.50
46045;BME280;31781;54.094;13.428;2023-04-30T06:18:13;102323.59;;;8.46;55.74
46045;BME280;31781;54.094;13.428;2023-04-30T06:20:17;102331.75;;;8.54;55.03
46045;BME280;31781;54.094;13.428;2023-04-30T06:22:18;102332.00;;;8.60;54.63
46045;BME280;31781;54.094;13.428;2023-04-30T06:24:20;102325.78;;;8.68;54.54
46045;BME280;31781;54.094;13.428;2023-04-30T06:26:22;102338.03;;;8.72;54.47
46045;BME280;31781;54.094;13.428;2023-04-30T06:28:23;102331.66;;;8.81;54.52
46045;BME280;31781;54.094;13.428;2023-04-30T06:30:25;102344.56;;;8.87;54.37
46045;BME280;31781;54.094;13.428;2023-04-30T06:32:27;102340.53;;;8.91;54.18
46045;BME280;31781;54.094;13.428;2023-04-30T06:34:29;102347.03;;;8.98;54.35
46045;BME280;31781;54.094;13.428;2023-04-30T06:36:32;102345.41;;;9.05;53.88
46045;BME280;31781;54.094;13.428;2023-04-30T06:38:34;102342.88;;;9.12;53.73
46045;BME280;31781;54.094;13.428;2023-04-30T06:40:36;102342.94;;;9.20;53.52
46045;BME280;31781;54.094;13.428;2023-04-30T06:42:37;102352.44;;;9.24;52.90
46045;BME280;31781;54.094;13.428;2023-04-30T06:44:39;102342.09;;;9.27;53.20
46045;BME280;31781;54.094;13.428;2023-04-30T06:46:41;102351.34;;;9.35;54.07
46045;BME280;31781;54.094;13.428;2023-04-30T06:48:43;102352.19;;;9.43;53.75
46045;BME280;31781;54.094;13.428;2023-04-30T06:50:45;102359.34;;;9.44;52.89
46045;BME280;31781;54.094;13.428;2023-04-30T06:52:48;102351.72;;;9.48;52.38
46045;BME280;31781;54.094;13.428;2023-04-30T06:54:50;102359.53;;;9.51;51.34
46045;BME280;31781;54.094;13.428;2023-04-30T06:56:52;102364.00;;;9.60;51.65
46045;BME280;31781;54.094;13.428;2023-04-30T06:58:54;102354.00;;;9.68;50.38
46045;BME280;31781;54.094;13.428;2023-04-30T07:00:56;102361.72;;;9.81;51.79
46045;BME280;31781;54.094;13.428;2023-04-30T07:02:58;102368.53;;;9.85;51.69
46045;BME280;31781;54.094;13.428;2023-04-30T07:04:59;102360.88;;;9.89;50.38
46045;BME280;31781;54.094;13.428;2023-04-30T07:07:01;102367.22;;;9.97;49.33
46045;BME280;31781;54.094;13.428;2023-04-30T07:09:04;102372.13;;;10.02;49.56
46045;BME280;31781;54.094;13.428;2023-04-30T07:11:06;102362.47;;;10.07;49.00
46045;BME280;31781;54.094;13.428;2023-04-30T07:13:08;102371.00;;;10.12;49.40
46045;BME280;31781;54.094;13.428;2023-04-30T07:15:10;102372.66;;;10.13;48.89
46045;BME280;31781;54.094;13.428;2023-04-30T07:17:11;102382.41;;;10.16;48.52
46045;BME280;31781;54.094;13.428;2023-04-30T07:19:13;102384.47;;;10.22;48.09
46045;BME280;31781;54.094;13.428;2023-04-30T07:21:15;102387.19;;;10.30;48.02
46045;BME280;31781;54.094;13.428;2023-04-30T07:23:17;102377.69;;;10.34;48.29
46045;BME280;31781;54.094;13.428;2023-04-30T07:25:20;102380.75;;;10.47;47.64
46045;BME280;31781;54.094;13.428;2023-04-30T07:27:22;102383.13;;;10.58;47.88
46045;BME280;31781;54.094;13.428;2023-04-30T07:29:23;102381.94;;;10.69;48.07
46045;BME280;31781;54.094;13.428;2023-04-30T07:31:25;102373.78;;;10.85;47.18
46045;BME280;31781;54.094;13.428;2023-04-30T07:33:27;102376.81;;;10.98;47.49
46045;BME280;31781;54.094;13.428;2023-04-30T07:35:28;102381.75;;;11.03;48.16
46045;BME280;31781;54.094;13.428;2023-04-30T07:37:30;102386.69;;;11.07;46.61
46045;BME280;31781;54.094;13.428;2023-04-30T07:39:36;102385.69;;;11.08;45.83
46045;BME280;31781;54.094;13.428;2023-04-30T07:41:39;102390.44;;;11.14;45.98
46045;BME280;31781;54.094;13.428;2023-04-30T07:43:40;102388.06;;;11.19;45.70
46045;BME280;31781;54.094;13.428;2023-04-30T07:45:42;102392.44;;;11.29;45.91
46045;BME280;31781;54.094;13.428;2023-04-30T07:47:44;102391.06;;;11.33;45.62
46045;BME280;31781;54.094;13.428;2023-04-30T07:49:46;102390.72;;;11.44;45.44
46045;BME280;31781;54.094;13.428;2023-04-30T07:51:48;102396.81;;;11.54;46.03
46045;BME280;31781;54.094;13.428;2023-04-30T07:53:50;102398.16;;;11.58;43.76
46045;BME280;31781;54.094;13.428;2023-04-30T07:55:51;102401.03;;;11.64;44.93
46045;BME280;31781;54.094;13.428;2023-04-30T07:57:54;102403.59;;;11.74;44.49
46045;BME280;31781;54.094;13.428;2023-04-30T07:59:57;102406.94;;;11.84;43.93
46045;BME280;31781;54.094;13.428;2023-04-30T08:02:00;102400.09;;;11.96;45.82
46045;BME280;31781;54.094;13.428;2023-04-30T08:04:03;102403.06;;;12.09;45.46
46045;BME280;31781;54.094;13.428;2023-04-30T08:06:05;102403.66;;;12.28;45.79
46045;BME280;31781;54.094;13.428;2023-04-30T08:08:07;102403.03;;;12.48;45.15
46045;BME280;31781;54.094;13.428;2023-04-30T08:10:09;102396.44;;;12.57;42.82
46045;BME280;31781;54.094;13.428;2023-04-30T08:12:11;102409.19;;;12.65;42.31
46045;BME280;31781;54.094;13.428;2023-04-30T08:14:15;102415.63;;;12.72;41.51
46045;BME280;31781;54.094;13.428;2023-04-30T08:16:16;102418.78;;;12.84;40.87
46045;BME280;31781;54.094;13.428;2023-04-30T08:18:18;102413.25;;;12.92;42.13
46045;BME280;31781;54.094;13.428;2023-04-30T08:20:20;102405.84;;;13.00;41.77
46045;BME280;31781;54.094;13.428;2023-04-30T08:22:22;102414.28;;;13.13;42.36
46045;BME280;31781;54.094;13.428;2023-04-30T08:24:24;102416.56;;;13.25;41.53
46045;BME280;31781;54.094;13.428;2023-04-30T08:26:25;102415.72;;;13.39;41.35
46045;BME280;31781;54.094;13.428;2023-04-30T08:28:27;102410.28;;;13.53;42.25
46045;BME280;31781;54.094;13.428;2023-04-30T08:30:30;102408.78;;;13.65;41.41
46045;BME280;31781;54.094;13.428;2023-04-30T08:32:33;102411.97;;;13.84;41.56
46045;BME280;31781;54.094;13.428;2023-04-30T08:34:35;102422.06;;;13.83;41.37
46045;BME280;31781;54.094;13.428;2023-04-30T08:36:37;102426.97;;;13.88;41.70
46045;BME280;31781;54.094;13.428;2023-04-30T08:38:39;102425.09;;;13.88;40.66
46045;BME280;31781;54.094;13.428;2023-04-30T08:40:45;102432.44;;;14.02;41.75
46045;BME280;31781;54.094;13.428;2023-04-30T08:42:59;102429.19;;;14.13;41.00
46045;BME280;31781;54.094;13.428;2023-04-30T08:45:07;102427.22;;;14.22;40.09
46045;BME280;31781;54.094;13.428;2023-04-30T08:47:13;102425.84;;;14.33;40.74
46045;BME280;31781;54.094;13.428;2023-04-30T08:49:15;102428.38;;;14.49;41.97
46045;BME280;31781;54.094;13.428;2023-04-30T08:51:17;102427.78;;;14.53;41.83
46045;BME280;31781;54.094;13.428;2023-04-30T08:53:20;102432.97;;;14.63;40.62
46045;BME280;31781;54.094;13.428;2023-04-30T08:55:22;102432.19;;;14.69;39.71
46045;BME280;31781;54.094;13.428;2023-04-30T08:57:24;102433.50;;;14.73;39.58
46045;BME280;31781;54.094;13.428;2023-04-30T08:59:25;102428.97;;;14.87;39.88
46045;BME280;31781;54.094;13.428;2023-04-30T09:01:28;102432.22;;;14.97;38.95
46045;BME280;31781;54.094;13.428;2023-04-30T09:03:32;102424.28;;;15.02;37.68
46045;BME280;31781;54.094;13.428;2023-04-30T09:05:33;102427.50;;;15.12;38.97
46045;BME280;31781;54.094;13.428;2023-04-30T09:07:35;102438.34;;;15.20;38.93
46045;BME280;31781;54.094;13.428;2023-04-30T09:09:40;102435.91;;;15.32;38.32
46045;BME280;31781;54.094;13.428;2023-04-30T09:11:42;102427.31;;;15.41;37.43
46045;BME280;31781;54.094;13.428;2023-04-30T09:13:44;102427.38;;;15.48;38.17
46045;BME280;31781;54.094;13.428;2023-04-30T09:15:50;102433.13;;;15.53;38.18
46045;BME280;31781;54.094;13.428;2023-04-30T09:18:06;102432.84;;;15.69;39.34
46045;BME280;31781;54.094;13.428;2023-04-30T09:20:11;102432.88;;;15.76;36.85
46045;BME280;31781;54.094;13.428;2023-04-30T09:22:18;102433.16;;;15.87;38.33
46045;BME280;31781;54.094;13.428;2023-04-30T09:24:21;102436.53;;;15.89;37.39
46045;BME280;31781;54.094;13.428;2023-04-30T09:26:30;102432.41;;;16.06;38.56
46045;BME280;31781;54.094;13.428;2023-04-30T09:28:32;102426.50;;;16.16;38.54
46045;BME280;31781;54.094;13.428;2023-04-30T09:30:34;102445.13;;;16.14;36.62
46045;BME280;31781;54.094;13.428;2023-04-30T09:32:53;102442.03;;;16.37;38.21
46045;BME280;31781;54.094;13.428;2023-04-30T09:34:57;102436.75;;;16.42;35.49
46045;BME280;31781;54.094;13.428;2023-04-30T09:37:00;102441.81;;;16.45;36.26
46045;BME280;31781;54.094;13.428;2023-04-30T09:39:05;102443.50;;;16.39;37.10
46045;BME280;31781;54.094;13.428;2023-04-30T09:41:20;102447.56;;;16.50;35.37
46045;BME280;31781;54.094;13.428;2023-04-30T09:43:23;102444.63;;;16.51;36.54
46045;BME280;31781;54.094;13.428;2023-04-30T09:45:25;102443.81;;;16.64;37.89
46045;BME280;31781;54.094;13.428;2023-04-30T09:47:29;102437.72;;;16.69;38.19
46045;BME280;31781;54.094;13.428;2023-04-30T09:49:31;102440.03;;;16.72;36.03
46045;BME280;31781;54.094;13.428;2023-04-30T09:51:52;102444.91;;;16.83;36.14
46045;BME280;31781;54.094;13.428;2023-04-30T09:53:57;102440.94;;;16.92;35.70
46045;BME280;31781;54.094;13.428;2023-04-30T09:56:01;102440.50;;;17.01;35.91
46045;BME280;31781;54.094;13.428;2023-04-30T09:58:05;102442.41;;;17.08;35.04
46045;BME280;31781;54.094;13.428;2023-04-30T10:00:08;102442.00;;;17.17;36.13
46045;BME280;31781;54.094;13.428;2023-04-30T10:02:12;102434.34;;;17.19;35.78
46045;BME280;31781;54.094;13.428;2023-04-30T10:04:14;102429.50;;;17.21;35.35
46045;BME280;31781;54.094;13.428;2023-04-30T10:06:17;102433.94;;;17.29;35.15
46045;BME280;31781;54.094;13.428;2023-04-30T10:08:25;102428.88;;;17.32;34.88
46045;BME280;31781;54.094;13.428;2023-04-30T10:10:30;102433.09;;;17.28;34.79
46045;BME280;31781;54.094;13.428;2023-04-30T10:12:38;102434.78;;;17.23;36.13
46045;BME280;31781;54.094;13.428;2023-04-30T10:14:44;102440.09;;;17.24;35.00
46045;BME280;31781;54.094;13.428;2023-04-30T10:16:52;102430.34;;;17.28;35.46
46045;BME280;31781;54.094;13.428;2023-04-30T10:18:58;102429.72;;;17.33;34.22
46045;BME280;31781;54.094;13.428;2023-04-30T10:21:06;102428.44;;;17.35;34.29
46045;BME280;31781;54.094;13.428;2023-04-30T10:23:08;102428.22;;;17.30;34.97
46045;BME280;31781;54.094;13.428;2023-04-30T10:25:10;102422.09;;;17.28;35.34
46045;BME280;31781;54.094;13.428;2023-04-30T10:27:14;102435.19;;;17.26;34.95
46045;BME280;31781;54.094;13.428;2023-04-30T10:29:16;102432.91;;;17.36;35.40
46045;BME280;31781;54.094;13.428;2023-04-30T10:31:19;102424.19;;;17.46;35.27
46045;BME280;31781;54.094;13.428;2023-04-30T10:33:30;102428.88;;;17.59;35.80
46045;BME280;31781;54.094;13.428;2023-04-30T10:35:42;102422.28;;;17.66;36.00
46045;BME280;31781;54.094;13.428;2023-04-30T10:37:49;102422.69;;;17.76;34.67
46045;BME280;31781;54.094;13.428;2023-04-30T10:39:53;102424.19;;;17.72;33.28
46045;BME280;31781;54.094;13.428;2023-04-30T10:42:02;102429.03;;;17.70;34.07